createdAt,value
2023-03-28T00:00:31.784Z,1005.7206398120001
2023-03-28T00:01:31.772Z,1005.7206398120001
2023-03-28T00:02:31.986Z,1005.6190484480001
2023-03-28T00:03:31.831Z,1005.8222311760001
2023-03-28T00:04:31.806Z,1005.8222311760001
2023-03-28T00:05:31.872Z,1005.92382254
2023-03-28T00:06:31.782Z,1005.6190484480001
2023-03-28T00:07:31.776Z,1005.6190484480001
2023-03-28T00:08:31.868Z,1005.5174570840001
2023-03-28T00:09:31.798Z,1005.8222311760001
2023-03-28T00:10:31.808Z,1005.6190484480001
2023-03-28T00:11:31.838Z,1005.41586572
2023-03-28T00:12:32.834Z,1005.7206398120001
2023-03-28T00:13:31.888Z,1005.6190484480001
2023-03-28T00:14:31.859Z,1005.7206398120001
2023-03-28T00:15:31.871Z,1005.6190484480001
2023-03-28T00:16:32.015Z,1005.6190484480001
2023-03-28T00:17:31.871Z,1005.7206398120001
2023-03-28T00:18:31.892Z,1005.5174570840001
2023-03-28T00:19:31.831Z,1005.7206398120001
2023-03-28T00:20:31.875Z,1005.7206398120001
2023-03-28T00:21:31.766Z,1006.0254139039998
2023-03-28T00:22:31.900Z,1005.6190484480001
2023-03-28T00:23:31.811Z,1005.7206398120001
2023-03-28T00:24:31.919Z,1005.7206398120001
2023-03-28T00:25:31.789Z,1005.8222311760001
2023-03-28T00:26:31.777Z,1005.7206398120001
2023-03-28T00:27:31.758Z,1005.7206398120001
2023-03-28T00:28:31.848Z,1005.6190484480001
2023-03-28T00:29:31.830Z,1005.8222311760001
2023-03-28T00:30:31.780Z,1005.8222311760001
2023-03-28T00:31:31.771Z,1005.92382254
2023-03-28T00:32:31.836Z,1005.92382254
2023-03-28T00:33:31.783Z,1005.8222311760001
2023-03-28T00:34:31.868Z,1005.92382254
2023-03-28T00:35:31.816Z,1005.92382254
2023-03-28T00:36:31.867Z,1005.8222311760001
2023-03-28T00:37:31.776Z,1005.92382254
2023-03-28T00:38:31.788Z,1006.127005268
2023-03-28T00:39:31.760Z,1005.92382254
2023-03-28T00:40:31.789Z,1006.0254139039998
2023-03-28T00:41:31.851Z,1005.8222311760001
2023-03-28T00:42:31.843Z,1006.0254139039998
2023-03-28T00:43:31.761Z,1005.92382254
2023-03-28T00:44:31.825Z,1005.92382254
2023-03-28T00:45:31.745Z,1005.92382254
2023-03-28T00:46:31.898Z,1005.8222311760001
2023-03-28T00:47:31.807Z,1006.0254139039998
2023-03-28T00:48:31.802Z,1006.0254139039998
2023-03-28T00:49:31.791Z,1005.8222311760001
2023-03-28T00:50:31.817Z,1006.0254139039998
2023-03-28T00:51:31.774Z,1005.92382254
2023-03-28T00:52:32.517Z,1005.92382254
2023-03-28T00:53:32.001Z,1005.92382254
2023-03-28T00:54:31.772Z,1005.92382254
2023-03-28T00:55:31.807Z,1006.0254139039998
2023-03-28T00:56:31.774Z,1006.127005268
2023-03-28T00:57:31.747Z,1006.0254139039998
2023-03-28T00:58:31.781Z,1005.92382254
2023-03-28T00:59:31.760Z,1005.8222311760001
2023-03-28T01:00:31.821Z,1005.92382254
2023-03-28T01:01:31.845Z,1005.92382254
2023-03-28T01:02:32.925Z,1006.0254139039998
2023-03-28T01:03:31.848Z,1006.127005268
2023-03-28T01:04:31.815Z,1006.127005268
2023-03-28T01:05:31.787Z,1006.0254139039998
2023-03-28T01:06:31.753Z,1006.127005268
2023-03-28T01:07:31.822Z,1006.0254139039998
2023-03-28T01:08:31.788Z,1006.0254139039998
2023-03-28T01:09:31.821Z,1006.0254139039998
2023-03-28T01:10:31.780Z,1006.127005268
2023-03-28T01:11:31.858Z,1006.127005268
2023-03-28T01:12:32.917Z,1006.0254139039998
2023-03-28T01:13:31.728Z,1005.92382254
2023-03-28T01:14:31.791Z,1006.0254139039998
2023-03-28T01:15:33.571Z,1006.0254139039998
2023-03-28T01:16:31.843Z,1006.0254139039998
2023-03-28T01:17:31.803Z,1006.0254139039998
2023-03-28T01:18:31.758Z,1006.228596632
2023-03-28T01:19:31.772Z,1006.228596632
2023-03-28T01:20:31.760Z,1006.127005268
2023-03-28T01:21:31.746Z,1006.228596632
2023-03-28T01:22:32.521Z,1006.0254139039998
2023-03-28T01:23:31.783Z,1006.127005268
2023-03-28T01:24:31.765Z,1006.127005268
2023-03-28T01:25:31.839Z,1006.228596632
2023-03-28T01:26:31.781Z,1006.0254139039998
2023-03-28T01:27:31.792Z,1006.0254139039998
2023-03-28T01:28:31.753Z,1006.0254139039998
2023-03-28T01:29:32.614Z,1006.228596632
2023-03-28T01:30:46.793Z,1006.127005268
2023-03-28T01:31:50.789Z,1006.3301879959998
2023-03-28T01:32:54.834Z,1006.0254139039998
2023-03-28T01:33:58.748Z,1006.0254139039998
2023-03-28T01:35:02.736Z,1006.127005268
2023-03-28T01:36:06.766Z,1006.3301879959998
2023-03-28T01:37:10.733Z,1006.228596632
2023-03-28T01:38:14.732Z,1006.228596632
2023-03-28T01:39:18.727Z,1006.127005268
2023-03-28T01:40:22.838Z,1006.3301879959998
2023-03-28T01:41:26.904Z,1006.3301879959998
2023-03-28T01:42:30.875Z,1006.127005268
2023-03-28T01:43:31.901Z,1006.228596632
2023-03-28T01:44:31.973Z,1006.228596632
2023-03-28T01:45:31.930Z,1005.92382254
2023-03-28T01:46:31.959Z,1006.0254139039998
2023-03-28T01:47:31.873Z,1006.228596632
2023-03-28T01:48:31.859Z,1006.43177936
2023-03-28T01:49:31.926Z,1006.0254139039998
2023-03-28T01:50:31.829Z,1006.127005268
2023-03-28T01:51:31.908Z,1006.228596632
2023-03-28T01:52:32.004Z,1006.228596632
2023-03-28T01:53:31.843Z,1006.228596632
2023-03-28T01:54:31.892Z,1005.92382254
2023-03-28T01:55:31.951Z,1006.127005268
2023-03-28T01:56:31.981Z,1006.127005268
2023-03-28T01:57:31.810Z,1006.228596632
2023-03-28T01:58:31.749Z,1006.127005268
2023-03-28T01:59:31.760Z,1006.127005268
2023-03-28T02:00:31.783Z,1006.0254139039998
2023-03-28T02:01:31.815Z,1006.127005268
2023-03-28T02:02:32.237Z,1006.0254139039998
2023-03-28T02:03:31.825Z,1006.127005268
2023-03-28T02:04:31.875Z,1006.127005268
2023-03-28T02:05:31.762Z,1006.0254139039998
2023-03-28T02:06:31.832Z,1006.0254139039998
2023-03-28T02:07:31.752Z,1006.127005268
2023-03-28T02:08:31.736Z,1005.92382254
2023-03-28T02:09:31.746Z,1006.228596632
2023-03-28T02:10:31.842Z,1006.228596632
2023-03-28T02:11:31.791Z,1006.127005268
2023-03-28T02:12:33.102Z,1006.3301879959998
2023-03-28T02:13:31.767Z,1006.228596632
2023-03-28T02:14:31.860Z,1006.228596632
2023-03-28T02:15:31.779Z,1006.228596632
2023-03-28T02:16:31.747Z,1006.228596632
2023-03-28T02:17:31.833Z,1006.3301879959998
2023-03-28T02:18:31.793Z,1006.127005268
2023-03-28T02:19:31.815Z,1006.127005268
2023-03-28T02:20:31.754Z,1006.0254139039998
2023-03-28T02:21:31.743Z,1006.0254139039998
2023-03-28T02:22:32.601Z,1006.43177936
2023-03-28T02:23:31.760Z,1006.127005268
2023-03-28T02:24:31.755Z,1006.228596632
2023-03-28T02:25:31.757Z,1006.0254139039998
2023-03-28T02:26:31.770Z,1006.0254139039998
2023-03-28T02:27:31.762Z,1006.127005268
2023-03-28T02:28:31.771Z,1006.228596632
2023-03-28T02:29:31.753Z,1006.228596632
2023-03-28T02:30:31.793Z,1006.3301879959998
2023-03-28T02:31:31.789Z,1006.228596632
2023-03-28T02:32:32.551Z,1006.228596632
2023-03-28T02:33:31.754Z,1006.228596632
2023-03-28T02:34:31.778Z,1006.3301879959998
2023-03-28T02:35:31.859Z,1006.3301879959998
2023-03-28T02:36:31.758Z,1006.43177936
2023-03-28T02:37:31.753Z,1006.228596632
2023-03-28T02:38:31.796Z,1006.3301879959998
2023-03-28T02:39:31.792Z,1006.127005268
2023-03-28T02:40:31.779Z,1006.43177936
2023-03-28T02:41:31.776Z,1006.228596632
2023-03-28T02:42:33.129Z,1006.3301879959998
2023-03-28T02:43:31.763Z,1006.3301879959998
2023-03-28T02:44:31.757Z,1006.3301879959998
2023-03-28T02:45:31.767Z,1006.533370724
2023-03-28T02:46:31.874Z,1006.43177936
2023-03-28T02:47:31.849Z,1006.3301879959998
2023-03-28T02:48:31.749Z,1006.3301879959998
2023-03-28T02:49:43.783Z,1006.228596632
2023-03-28T02:50:31.814Z,1006.3301879959998
2023-03-28T02:51:31.841Z,1006.533370724
2023-03-28T02:52:32.973Z,1006.533370724
2023-03-28T02:53:31.730Z,1006.43177936
2023-03-28T02:54:31.801Z,1006.43177936
2023-03-28T02:55:32.005Z,1006.3301879959998
2023-03-28T02:56:31.867Z,1006.43177936
2023-03-28T02:57:31.813Z,1006.43177936
2023-03-28T02:58:31.780Z,1006.533370724
2023-03-28T02:59:31.797Z,1006.43177936
2023-03-28T03:00:31.761Z,1006.3301879959998
2023-03-28T03:01:31.843Z,1006.43177936
2023-03-28T03:02:32.786Z,1006.3301879959998
2023-03-28T03:03:31.856Z,1006.533370724
2023-03-28T03:04:31.739Z,1006.3301879959998
2023-03-28T03:05:31.741Z,1006.6349620879998
2023-03-28T03:06:31.766Z,1006.736553452
2023-03-28T03:07:31.784Z,1006.533370724
2023-03-28T03:08:31.774Z,1006.533370724
2023-03-28T03:09:31.768Z,1006.736553452
2023-03-28T03:10:31.771Z,1006.533370724
2023-03-28T03:11:31.920Z,1006.838144816
2023-03-28T03:12:31.864Z,1006.6349620879998
2023-03-28T03:13:31.863Z,1006.838144816
2023-03-28T03:14:31.772Z,1006.6349620879998
2023-03-28T03:15:31.782Z,1006.9397361800001
2023-03-28T03:16:31.820Z,1006.6349620879998
2023-03-28T03:17:31.968Z,1006.6349620879998
2023-03-28T03:18:31.893Z,1006.43177936
2023-03-28T03:19:31.804Z,1006.736553452
2023-03-28T03:20:31.886Z,1006.533370724
2023-03-28T03:21:31.937Z,1006.6349620879998
2023-03-28T03:22:31.881Z,1006.736553452
2023-03-28T03:23:31.799Z,1006.736553452
2023-03-28T03:24:31.854Z,1006.736553452
2023-03-28T03:25:31.944Z,1006.736553452
2023-03-28T03:26:31.760Z,1006.533370724
2023-03-28T03:27:31.774Z,1006.533370724
2023-03-28T03:28:31.893Z,1006.736553452
2023-03-28T03:29:38.689Z,1006.9397361800001
2023-03-28T03:30:31.871Z,1006.736553452
2023-03-28T03:31:31.928Z,1006.736553452
2023-03-28T03:32:33.009Z,1006.736553452
2023-03-28T03:33:32.530Z,1006.6349620879998
2023-03-28T03:34:31.833Z,1006.736553452
2023-03-28T03:35:31.949Z,1006.838144816
2023-03-28T03:36:31.755Z,1006.6349620879998
2023-03-28T03:37:31.844Z,1006.6349620879998
2023-03-28T03:38:31.818Z,1006.6349620879998
2023-03-28T03:39:31.854Z,1006.736553452
2023-03-28T03:40:31.852Z,1007.0074637559999
2023-03-28T03:41:31.851Z,1006.838144816
2023-03-28T03:42:32.141Z,1006.736553452
2023-03-28T03:43:31.854Z,1006.9397361800001
2023-03-28T03:44:31.752Z,1006.736553452
2023-03-28T03:45:31.871Z,1006.838144816
2023-03-28T03:46:31.919Z,1006.736553452
2023-03-28T03:47:31.819Z,1006.9397361800001
2023-03-28T03:48:31.767Z,1007.0074637559999
2023-03-28T03:49:31.856Z,1006.9397361800001
2023-03-28T03:50:31.740Z,1006.838144816
2023-03-28T03:51:31.776Z,1006.9397361800001
2023-03-28T03:52:32.834Z,1006.9397361800001
2023-03-28T03:53:31.744Z,1006.9397361800001
2023-03-28T03:54:31.832Z,1006.9397361800001
2023-03-28T03:55:31.776Z,1006.838144816
2023-03-28T03:56:31.774Z,1006.736553452
2023-03-28T03:57:31.760Z,1006.838144816
2023-03-28T03:58:31.757Z,1006.736553452
2023-03-28T03:59:31.792Z,1006.9397361800001
2023-03-28T04:00:31.752Z,1006.838144816
2023-03-28T04:01:31.772Z,1006.9397361800001
2023-03-28T04:02:31.948Z,1006.9397361800001
2023-03-28T04:03:31.872Z,1006.838144816
2023-03-28T04:04:31.769Z,1006.9397361800001
2023-03-28T04:05:31.777Z,1006.9397361800001
2023-03-28T04:06:31.791Z,1007.0074637559999
2023-03-28T04:07:31.776Z,1006.838144816
2023-03-28T04:08:31.758Z,1006.736553452
2023-03-28T04:09:31.732Z,1006.9397361800001
2023-03-28T04:10:31.750Z,1006.9397361800001
2023-03-28T04:11:31.756Z,1006.838144816
2023-03-28T04:12:32.607Z,1006.838144816
2023-03-28T04:13:31.828Z,1007.0074637559999
2023-03-28T04:14:31.776Z,1006.838144816
2023-03-28T04:15:31.920Z,1007.0074637559999
2023-03-28T04:16:41.139Z,1007.10905512
2023-03-28T04:17:31.774Z,1007.0074637559999
2023-03-28T04:18:31.776Z,1006.9397361800001
2023-03-28T04:19:31.804Z,1006.838144816
2023-03-28T04:20:31.872Z,1006.9397361800001
2023-03-28T04:21:31.770Z,1007.0074637559999
2023-03-28T04:22:31.772Z,1007.2106464839999
2023-03-28T04:23:32.442Z,1006.9397361800001
2023-03-28T04:24:31.749Z,1006.9397361800001
2023-03-28T04:25:31.807Z,1006.838144816
2023-03-28T04:26:31.809Z,1006.9397361800001
2023-03-28T04:27:31.759Z,1007.10905512
2023-03-28T04:28:31.736Z,1006.9397361800001
2023-03-28T04:29:31.759Z,1007.0074637559999
2023-03-28T04:30:31.795Z,1007.10905512
2023-03-28T04:31:31.864Z,1007.0074637559999
2023-03-28T04:32:33.511Z,1007.10905512
2023-03-28T04:33:31.743Z,1007.10905512
2023-03-28T04:34:31.812Z,1007.10905512
2023-03-28T04:35:31.782Z,1007.10905512
2023-03-28T04:36:31.743Z,1007.10905512
2023-03-28T04:37:31.728Z,1007.0074637559999
2023-03-28T04:38:31.786Z,1007.10905512
2023-03-28T04:39:31.770Z,1007.0074637559999
2023-03-28T04:40:31.757Z,1007.10905512
2023-03-28T04:41:31.829Z,1007.0074637559999
2023-03-28T04:42:31.810Z,1007.10905512
2023-03-28T04:43:31.771Z,1006.9397361800001
2023-03-28T04:44:31.795Z,1007.10905512
2023-03-28T04:45:31.866Z,1007.0074637559999
2023-03-28T04:46:31.772Z,1007.10905512
2023-03-28T04:47:31.804Z,1006.838144816
2023-03-28T04:48:31.767Z,1007.10905512
2023-03-28T04:49:31.736Z,1006.9397361800001
2023-03-28T04:50:32.895Z,1007.10905512
2023-03-28T04:51:31.779Z,1007.0074637559999
2023-03-28T04:52:31.749Z,1007.0074637559999
2023-03-28T04:53:31.747Z,1007.2106464839999
2023-03-28T04:54:31.806Z,1007.10905512
2023-03-28T04:55:31.753Z,1006.838144816
2023-03-28T04:56:31.751Z,1007.2106464839999
2023-03-28T04:57:31.764Z,1007.10905512
2023-03-28T04:58:31.792Z,1007.2106464839999
2023-03-28T04:59:31.835Z,1007.10905512
2023-03-28T05:00:31.770Z,1007.2106464839999
2023-03-28T05:01:31.764Z,1007.0074637559999
2023-03-28T05:02:31.936Z,1007.2106464839999
2023-03-28T05:03:31.831Z,1007.2106464839999
2023-03-28T05:04:31.742Z,1007.0074637559999
2023-03-28T05:05:31.781Z,1007.2106464839999
2023-03-28T05:06:31.747Z,1007.5154205759999
2023-03-28T05:07:31.776Z,1007.3122378479999
2023-03-28T05:08:31.818Z,1007.5154205759999
2023-03-28T05:09:31.829Z,1007.2106464839999
2023-03-28T05:10:31.776Z,1007.2106464839999
2023-03-28T05:11:31.789Z,1007.3122378479999
2023-03-28T05:12:33.770Z,1007.2106464839999
2023-03-28T05:13:31.787Z,1007.3122378479999
2023-03-28T05:14:31.717Z,1007.3122378479999
2023-03-28T05:15:31.780Z,1007.3122378479999
2023-03-28T05:16:31.876Z,1007.413829212
2023-03-28T05:17:31.761Z,1007.3122378479999
2023-03-28T05:18:31.914Z,1007.3122378479999
2023-03-28T05:19:31.816Z,1007.413829212
2023-03-28T05:20:31.778Z,1007.413829212
2023-03-28T05:21:31.784Z,1007.2106464839999
2023-03-28T05:22:31.743Z,1007.413829212
2023-03-28T05:23:31.789Z,1007.413829212
2023-03-28T05:24:31.738Z,1007.5154205759999
2023-03-28T05:25:31.739Z,1007.413829212
2023-03-28T05:26:31.731Z,1007.6170119399999
2023-03-28T05:27:31.830Z,1007.413829212
2023-03-28T05:28:31.739Z,1007.5154205759999
2023-03-28T05:29:31.746Z,1007.2106464839999
2023-03-28T05:30:31.710Z,1007.413829212
2023-03-28T05:31:31.769Z,1007.5154205759999
2023-03-28T05:32:31.761Z,1007.5154205759999
2023-03-28T05:33:31.724Z,1007.3122378479999
2023-03-28T05:34:31.727Z,1007.413829212
2023-03-28T05:35:31.778Z,1007.6170119399999
2023-03-28T05:36:31.722Z,1007.6170119399999
2023-03-28T05:37:31.757Z,1007.413829212
2023-03-28T05:38:31.738Z,1007.718603304
2023-03-28T05:39:31.862Z,1007.6170119399999
2023-03-28T05:40:31.725Z,1007.718603304
2023-03-28T05:41:31.750Z,1007.8201946679999
2023-03-28T05:42:31.701Z,1007.5154205759999
2023-03-28T05:43:31.802Z,1007.6170119399999
2023-03-28T05:44:31.734Z,1007.6170119399999
2023-03-28T05:45:31.806Z,1007.8201946679999
2023-03-28T05:46:31.746Z,1008.1249687599999
2023-03-28T05:47:31.837Z,1007.8201946679999
2023-03-28T05:48:31.745Z,1007.718603304
2023-03-28T05:49:31.751Z,1007.718603304
2023-03-28T05:50:31.739Z,1007.921786032
2023-03-28T05:51:31.786Z,1007.8201946679999
2023-03-28T05:52:31.733Z,1008.1249687599999
2023-03-28T05:53:31.766Z,1007.921786032
2023-03-28T05:54:31.733Z,1007.8201946679999
2023-03-28T05:55:33.233Z,1007.921786032
2023-03-28T05:56:31.772Z,1007.6170119399999
2023-03-28T05:57:31.877Z,1007.8201946679999
2023-03-28T05:58:31.745Z,1007.8201946679999
2023-03-28T05:59:31.784Z,1007.718603304
2023-03-28T06:00:31.748Z,1007.921786032
2023-03-28T06:01:31.776Z,1008.1249687599999
2023-03-28T06:02:31.867Z,1008.023377396
2023-03-28T06:03:31.841Z,1007.8201946679999
2023-03-28T06:04:31.785Z,1007.921786032
2023-03-28T06:05:31.738Z,1008.023377396
2023-03-28T06:06:31.765Z,1008.1249687599999
2023-03-28T06:07:41.349Z,1007.921786032
2023-03-28T06:08:31.718Z,1008.1249687599999
2023-03-28T06:09:31.712Z,1008.1249687599999
2023-03-28T06:10:31.726Z,1007.921786032
2023-03-28T06:11:31.805Z,1008.1249687599999
2023-03-28T06:12:31.780Z,1007.921786032
2023-03-28T06:13:31.738Z,1008.023377396
2023-03-28T06:14:31.753Z,1008.1249687599999
2023-03-28T06:15:31.899Z,1008.023377396
2023-03-28T06:16:31.784Z,1008.1249687599999
2023-03-28T06:17:31.764Z,1008.023377396
2023-03-28T06:18:31.758Z,1008.226560124
2023-03-28T06:19:31.743Z,1008.226560124
2023-03-28T06:20:31.746Z,1008.023377396
2023-03-28T06:21:31.712Z,1008.328151488
2023-03-28T06:22:31.768Z,1008.328151488
2023-03-28T06:23:31.742Z,1008.328151488
2023-03-28T06:24:31.762Z,1008.328151488
2023-03-28T06:25:31.738Z,1008.328151488
2023-03-28T06:26:31.815Z,1008.328151488
2023-03-28T06:27:31.767Z,1008.226560124
2023-03-28T06:28:31.756Z,1008.226560124
2023-03-28T06:29:31.744Z,1008.226560124
2023-03-28T06:30:31.746Z,1008.328151488
2023-03-28T06:31:31.870Z,1008.429742852
2023-03-28T06:32:31.749Z,1008.531334216
2023-03-28T06:33:31.721Z,1008.63292558
2023-03-28T06:34:31.730Z,1008.531334216
2023-03-28T06:35:31.833Z,1008.531334216
2023-03-28T06:36:31.753Z,1008.531334216
2023-03-28T06:37:31.730Z,1008.531334216
2023-03-28T06:38:31.801Z,1008.63292558
2023-03-28T06:39:31.762Z,1008.63292558
2023-03-28T06:40:31.751Z,1008.429742852
2023-03-28T06:41:31.711Z,1008.429742852
2023-03-28T06:42:31.777Z,1008.63292558
2023-03-28T06:43:31.811Z,1008.531334216
2023-03-28T06:44:31.709Z,1008.63292558
2023-03-28T06:45:33.572Z,1008.63292558
2023-03-28T06:46:31.773Z,1008.734516944
2023-03-28T06:47:31.805Z,1008.734516944
2023-03-28T06:48:33.590Z,1008.836108308
2023-03-28T06:49:31.722Z,1009.0392910360001
2023-03-28T06:50:31.740Z,1008.937699672
2023-03-28T06:51:31.745Z,1008.937699672
2023-03-28T06:52:31.725Z,1008.836108308
2023-03-28T06:53:31.735Z,1008.734516944
2023-03-28T06:54:31.734Z,1008.836108308
2023-03-28T06:55:31.770Z,1008.63292558
2023-03-28T06:56:31.708Z,1008.63292558
2023-03-28T06:57:31.693Z,1008.734516944
2023-03-28T06:58:31.749Z,1008.734516944
2023-03-28T06:59:31.781Z,1008.734516944
2023-03-28T07:00:31.712Z,1008.531334216
2023-03-28T07:01:31.766Z,1008.531334216
2023-03-28T07:02:33.512Z,1008.63292558
2023-03-28T07:03:31.802Z,1008.429742852
2023-03-28T07:04:31.740Z,1008.63292558
2023-03-28T07:05:31.725Z,1008.836108308
2023-03-28T07:06:31.739Z,1008.63292558
2023-03-28T07:07:31.781Z,1008.63292558
2023-03-28T07:08:31.761Z,1008.734516944
2023-03-28T07:09:31.773Z,1008.63292558
2023-03-28T07:10:31.711Z,1008.429742852
2023-03-28T07:11:31.705Z,1008.734516944
2023-03-28T07:12:32.657Z,1008.531334216
2023-03-28T07:13:31.741Z,1008.531334216
2023-03-28T07:14:31.740Z,1008.937699672
2023-03-28T07:15:31.698Z,1008.63292558
2023-03-28T07:16:31.791Z,1008.63292558
2023-03-28T07:17:31.767Z,1008.63292558
2023-03-28T07:18:31.710Z,1008.836108308
2023-03-28T07:19:31.727Z,1008.836108308
2023-03-28T07:20:31.807Z,1008.937699672
2023-03-28T07:21:31.730Z,1008.63292558
2023-03-28T07:22:31.777Z,1008.937699672
2023-03-28T07:23:31.742Z,1008.734516944
2023-03-28T07:24:31.762Z,1008.734516944
2023-03-28T07:25:31.800Z,1008.836108308
2023-03-28T07:26:31.743Z,1008.937699672
2023-03-28T07:27:31.713Z,1008.836108308
2023-03-28T07:28:31.736Z,1008.734516944
2023-03-28T07:29:31.835Z,1008.836108308
2023-03-28T07:30:31.712Z,1008.836108308
2023-03-28T07:31:31.754Z,1008.836108308
2023-03-28T07:32:43.403Z,1008.836108308
2023-03-28T07:33:36.797Z,1008.836108308
2023-03-28T07:34:31.828Z,1008.734516944
2023-03-28T07:35:31.803Z,1009.0392910360001
2023-03-28T07:36:32.029Z,1008.836108308
2023-03-28T07:37:31.731Z,1008.836108308
2023-03-28T07:38:31.733Z,1009.0392910360001
2023-03-28T07:39:31.720Z,1008.836108308
2023-03-28T07:40:31.717Z,1008.937699672
2023-03-28T07:41:31.742Z,1009.0392910360001
2023-03-28T07:42:31.974Z,1009.0392910360001
2023-03-28T07:43:31.772Z,1009.0392910360001
2023-03-28T07:44:31.697Z,1009.1070186119999
2023-03-28T07:45:31.842Z,1009.0392910360001
2023-03-28T07:46:31.751Z,1009.1070186119999
2023-03-28T07:47:31.889Z,1009.208609976
2023-03-28T07:48:31.741Z,1008.937699672
2023-03-28T07:49:31.710Z,1009.1070186119999
2023-03-28T07:50:31.735Z,1009.1070186119999
2023-03-28T07:51:31.734Z,1009.0392910360001
2023-03-28T07:52:31.765Z,1009.208609976
2023-03-28T07:53:31.715Z,1009.1070186119999
2023-03-28T07:54:31.760Z,1009.1070186119999
2023-03-28T07:55:35.132Z,1009.1070186119999
2023-03-28T07:56:31.718Z,1009.0392910360001
2023-03-28T07:57:31.722Z,1009.208609976
2023-03-28T07:58:31.746Z,1009.208609976
2023-03-28T07:59:31.762Z,1009.4117927039999
2023-03-28T08:00:31.729Z,1009.1070186119999
2023-03-28T08:01:31.761Z,1009.3102013399999
2023-03-28T08:02:31.773Z,1009.208609976
2023-03-28T08:03:31.868Z,1009.3102013399999
2023-03-28T08:04:31.741Z,1009.1070186119999
2023-03-28T08:05:31.892Z,1009.3102013399999
2023-03-28T08:06:32.634Z,1009.3102013399999
2023-03-28T08:07:31.716Z,1009.3102013399999
2023-03-28T08:08:31.715Z,1009.513384068
2023-03-28T08:09:31.720Z,1009.1070186119999
2023-03-28T08:10:31.768Z,1009.4117927039999
2023-03-28T08:11:31.775Z,1009.4117927039999
2023-03-28T08:12:32.424Z,1009.4117927039999
2023-03-28T08:13:31.734Z,1009.4117927039999
2023-03-28T08:14:31.716Z,1009.4117927039999
2023-03-28T08:15:31.768Z,1009.513384068
2023-03-28T08:16:31.886Z,1009.513384068
2023-03-28T08:17:31.795Z,1009.4117927039999
2023-03-28T08:18:31.742Z,1009.208609976
2023-03-28T08:19:31.756Z,1009.4117927039999
2023-03-28T08:20:31.712Z,1009.513384068
2023-03-28T08:21:31.746Z,1009.6149754319999
2023-03-28T08:22:33.228Z,1009.513384068
2023-03-28T08:23:31.756Z,1009.513384068
2023-03-28T08:24:35.735Z,1009.513384068
2023-03-28T08:25:31.737Z,1009.6149754319999
2023-03-28T08:26:31.742Z,1009.7165667959999
2023-03-28T08:27:31.759Z,1009.513384068
2023-03-28T08:28:31.774Z,1009.4117927039999
2023-03-28T08:29:31.729Z,1009.513384068
2023-03-28T08:30:31.737Z,1009.513384068
2023-03-28T08:31:31.796Z,1009.6149754319999
2023-03-28T08:32:33.742Z,1009.81815816
2023-03-28T08:33:31.701Z,1009.919749524
2023-03-28T08:34:31.725Z,1009.6149754319999
2023-03-28T08:35:31.782Z,1009.7165667959999
2023-03-28T08:36:31.722Z,1009.7165667959999
2023-03-28T08:37:31.715Z,1009.7165667959999
2023-03-28T08:38:31.741Z,1009.7165667959999
2023-03-28T08:39:31.772Z,1009.7165667959999
2023-03-28T08:40:31.766Z,1009.919749524
2023-03-28T08:41:31.706Z,1009.7165667959999
2023-03-28T08:42:31.715Z,1009.81815816
2023-03-28T08:43:31.765Z,1009.81815816
2023-03-28T08:44:31.706Z,1009.81815816
2023-03-28T08:45:31.717Z,1009.81815816
2023-03-28T08:46:31.877Z,1009.919749524
2023-03-28T08:47:31.769Z,1009.919749524
2023-03-28T08:48:31.778Z,1010.0213408879999
2023-03-28T08:49:31.722Z,1010.0213408879999
2023-03-28T08:50:31.721Z,1009.81815816
2023-03-28T08:51:31.739Z,1009.919749524
2023-03-28T08:52:32.378Z,1010.0213408879999
2023-03-28T08:53:31.729Z,1009.81815816
2023-03-28T08:54:32.942Z,1009.919749524
2023-03-28T08:55:31.758Z,1009.919749524
2023-03-28T08:56:31.706Z,1010.0213408879999
2023-03-28T08:57:31.718Z,1009.919749524
2023-03-28T08:58:31.779Z,1010.122932252
2023-03-28T08:59:31.749Z,1010.122932252
2023-03-28T09:00:31.756Z,1010.0213408879999
2023-03-28T09:01:31.769Z,1010.0213408879999
2023-03-28T09:02:32.170Z,1010.0213408879999
2023-03-28T09:03:31.765Z,1009.919749524
2023-03-28T09:04:31.773Z,1010.0213408879999
2023-03-28T09:05:31.722Z,1010.224523616
2023-03-28T09:06:31.729Z,1010.122932252
2023-03-28T09:07:31.723Z,1009.919749524
2023-03-28T09:08:31.828Z,1010.0213408879999
2023-03-28T09:09:31.721Z,1010.224523616
2023-03-28T09:10:31.708Z,1010.122932252
2023-03-28T09:11:31.678Z,1010.224523616
2023-03-28T09:12:31.742Z,1010.122932252
2023-03-28T09:13:31.725Z,1010.3261149799999
2023-03-28T09:14:32.372Z,1010.3261149799999
2023-03-28T09:15:31.723Z,1010.3261149799999
2023-03-28T09:16:31.808Z,1010.122932252
2023-03-28T09:17:31.763Z,1010.224523616
2023-03-28T09:18:31.736Z,1010.0213408879999
2023-03-28T09:19:44.668Z,1010.4277063440001
2023-03-28T09:20:31.755Z,1010.122932252
2023-03-28T09:21:31.736Z,1010.224523616
2023-03-28T09:22:32.255Z,1010.224523616
2023-03-28T09:23:31.732Z,1010.3261149799999
2023-03-28T09:24:31.709Z,1010.3261149799999
2023-03-28T09:25:31.780Z,1010.0213408879999
2023-03-28T09:26:31.729Z,1010.4277063440001
2023-03-28T09:27:31.734Z,1010.4277063440001
2023-03-28T09:28:31.715Z,1010.224523616
2023-03-28T09:29:31.707Z,1010.5292977080001
2023-03-28T09:30:31.686Z,1010.5292977080001
2023-03-28T09:31:31.786Z,1010.3261149799999
2023-03-28T09:32:31.808Z,1010.3261149799999
2023-03-28T09:33:31.756Z,1010.4277063440001
2023-03-28T09:34:31.767Z,1010.224523616
2023-03-28T09:35:31.734Z,1010.4277063440001